createdAt,value
2023-04-22T00:02:02.801Z,100831.94
2023-04-22T00:05:07.858Z,100835.78
2023-04-22T00:08:10.520Z,100837.66
2023-04-22T00:11:13.130Z,100831.97
2023-04-22T00:14:15.726Z,100828.97
2023-04-22T00:17:18.342Z,100836.75
2023-04-22T00:20:22.408Z,100832.72
2023-04-22T00:23:25.026Z,100829.44
2023-04-22T00:26:27.594Z,100820.63
2023-04-22T00:29:30.182Z,100830.13
2023-04-22T00:32:32.735Z,100835.69
2023-04-22T00:35:36.598Z,100818.56
2023-04-22T00:38:39.164Z,100829.91
2023-04-22T00:41:41.691Z,100835.38
2023-04-22T00:44:44.223Z,100835.25
2023-04-22T00:47:46.855Z,100833.63
2023-04-22T00:50:50.831Z,100829.56
2023-04-22T00:53:53.398Z,100832.25
2023-04-22T00:56:56.191Z,100833.63
2023-04-22T00:59:58.737Z,100833.84
2023-04-22T01:03:01.502Z,100831.28
2023-04-22T01:06:05.608Z,100830.81
2023-04-22T01:09:08.189Z,100834.28
2023-04-22T01:12:10.719Z,100832.41
2023-04-22T01:15:13.229Z,100834.50
2023-04-22T01:18:16.203Z,100832.63
2023-04-22T01:21:20.089Z,100828.44
2023-04-22T01:24:23.974Z,100825.19
2023-04-22T01:27:26.566Z,100820.34
2023-04-22T01:30:29.113Z,100825.09
2023-04-22T01:33:31.799Z,100830.31
2023-04-22T01:36:34.784Z,100825.91
2023-04-22T01:39:38.983Z,100816.16
2023-04-22T01:42:41.664Z,100814.53
2023-04-22T01:45:44.239Z,100812.91
2023-04-22T01:48:50.364Z,100811.28
2023-04-22T01:51:52.952Z,100816.72
2023-04-22T01:54:56.853Z,100809.78
2023-04-22T01:57:59.423Z,100812.44
2023-04-22T02:01:01.993Z,100803.63
2023-04-22T02:04:04.524Z,100809.84
2023-04-22T02:07:07.023Z,100816.78
2023-04-22T02:10:12.327Z,100813.97
2023-04-22T02:13:14.892Z,100813.69
2023-04-22T02:16:17.441Z,100805.72
2023-04-22T02:19:20.022Z,100812.75
2023-04-22T02:22:22.654Z,100809.50
2023-04-22T02:25:26.940Z,100802.34
2023-04-22T02:28:29.514Z,100802.34
2023-04-22T02:31:32.199Z,100799.09
2023-04-22T02:34:34.765Z,100803.03
2023-04-22T02:37:37.426Z,100797.00
2023-04-22T02:40:41.358Z,100800.59
2023-04-22T02:43:46.466Z,100794.22
2023-04-22T02:46:49.097Z,100795.72
2023-04-22T02:49:51.713Z,100793.94
2023-04-22T02:52:54.335Z,100785.41
2023-04-22T02:55:58.331Z,100795.06
2023-04-22T02:59:00.871Z,100785.34
2023-04-22T03:02:06.516Z,100778.81
2023-04-22T03:05:10.224Z,100778.56
2023-04-22T03:08:12.772Z,100773.69
2023-04-22T03:11:16.707Z,100776.81
2023-04-22T03:14:19.287Z,100777.50
2023-04-22T03:17:21.960Z,100774.91
2023-04-22T03:20:24.551Z,100768.53
2023-04-22T03:23:27.118Z,100762.06
2023-04-22T03:26:31.038Z,100756.72
2023-04-22T03:29:33.585Z,100748.13
2023-04-22T03:32:36.149Z,100754.81
2023-04-22T03:35:38.739Z,100758.56
2023-04-22T03:38:41.269Z,100749.06
2023-04-22T03:41:45.138Z,100738.47
2023-04-22T03:44:47.727Z,100753.94
2023-04-22T03:47:50.309Z,100740.56
2023-04-22T03:50:53.090Z,100736.63
2023-04-22T03:53:55.674Z,100733.53
2023-04-22T03:56:59.563Z,100735.81
2023-04-22T04:00:02.104Z,100730.63
2023-04-22T04:03:04.951Z,100729.47
2023-04-22T04:06:07.673Z,100721.16
2023-04-22T04:09:10.924Z,100723.25
2023-04-22T04:12:14.837Z,100726.50
2023-04-22T04:15:18.894Z,100715.84
2023-04-22T04:18:21.576Z,100722.59
2023-04-22T04:21:24.174Z,100722.59
2023-04-22T04:24:26.816Z,100708.03
2023-04-22T04:27:30.725Z,100716.34
2023-04-22T04:30:33.629Z,100710.78
2023-04-22T04:33:37.784Z,100720.41
2023-04-22T04:36:40.351Z,100716.13
2023-04-22T04:39:43.434Z,100713.34
2023-04-22T04:42:47.447Z,100708.97
2023-04-22T04:45:50.010Z,100713.25
2023-04-22T04:48:53.942Z,100713.56
2023-04-22T04:51:56.473Z,100714.06
2023-04-22T04:54:59.036Z,100707.81
2023-04-22T04:58:02.940Z,100692.81
2023-04-22T05:01:06.171Z,100703.22
2023-04-22T05:04:08.885Z,100695.34
2023-04-22T05:07:11.574Z,100694.69
2023-04-22T05:10:14.483Z,100688.00
2023-04-22T05:13:18.353Z,100685.69
2023-04-22T05:16:20.997Z,100686.16
2023-04-22T05:19:23.665Z,100694.97
2023-04-22T05:22:26.187Z,100703.72
2023-04-22T05:25:28.754Z,100712.53
2023-04-22T05:28:32.674Z,100722.00
2023-04-22T05:31:35.211Z,100714.16
2023-04-22T05:34:37.746Z,100716.22
2023-04-22T05:37:40.493Z,100720.63
2023-04-22T05:40:43.088Z,100713.13
2023-04-22T05:43:47.292Z,100719.97
2023-04-22T05:46:49.799Z,100720.41
2023-04-22T05:49:52.585Z,100718.44
2023-04-22T05:52:55.087Z,100721.72
2023-04-22T05:55:57.589Z,100718.59
2023-04-22T05:59:01.516Z,100717.09
2023-04-22T06:02:04.167Z,100716.75
2023-04-22T06:05:07.861Z,100707.75
2023-04-22T06:08:10.626Z,100707.53
2023-04-22T06:11:13.217Z,100705.69
2023-04-22T06:14:17.124Z,100695.53
2023-04-22T06:17:19.682Z,100697.28
2023-04-22T06:20:22.486Z,100698.53
2023-04-22T06:23:25.035Z,100693.13
2023-04-22T06:26:27.685Z,100687.34
2023-04-22T06:29:31.633Z,100683.53
2023-04-22T06:32:34.198Z,100684.47
2023-04-22T06:35:36.729Z,100681.47
2023-04-22T06:38:39.279Z,100688.66
2023-04-22T06:41:44.281Z,100672.91
2023-04-22T06:44:48.228Z,100677.06
2023-04-22T06:47:51.252Z,100685.16
2023-04-22T06:50:53.792Z,100675.00
2023-04-22T06:53:58.204Z,100681.13
2023-04-22T06:57:01.557Z,100679.25
2023-04-22T07:00:06.089Z,100671.50
2023-04-22T07:03:08.757Z,100668.47
2023-04-22T07:06:11.389Z,100669.44
2023-04-22T07:09:13.905Z,100673.13
2023-04-22T07:12:16.872Z,100678.44
2023-04-22T07:15:20.836Z,100678.66
2023-04-22T07:18:23.407Z,100676.09
2023-04-22T07:21:26.185Z,100666.38
2023-04-22T07:24:28.717Z,100668.22
2023-04-22T07:27:31.288Z,100666.56
2023-04-22T07:30:35.296Z,100669.75
2023-04-22T07:33:37.892Z,100678.97
2023-04-22T07:36:40.426Z,100689.56
2023-04-22T07:39:43.013Z,100695.34
2023-04-22T07:42:45.575Z,100700.22
2023-04-22T07:45:49.445Z,100693.91
2023-04-22T07:48:52.050Z,100679.50
2023-04-22T07:51:54.638Z,100678.69
2023-04-22T07:54:57.189Z,100670.44
2023-04-22T07:58:00.845Z,100669.66
2023-04-22T08:01:05.237Z,100652.09
2023-04-22T08:04:08.414Z,100650.50
2023-04-22T08:10:16.732Z,100635.50
2023-04-22T08:13:19.341Z,100638.09
2023-04-22T08:16:23.342Z,100634.56
2023-04-22T08:19:25.943Z,100639.78
2023-04-22T08:22:28.495Z,100637.88
2023-04-22T08:25:31.471Z,100638.31
2023-04-22T08:28:34.000Z,100632.75
2023-04-22T08:31:37.927Z,100651.16
2023-04-22T08:34:40.862Z,100646.47
2023-04-22T08:37:43.558Z,100642.28
2023-04-22T08:40:46.144Z,100642.22
2023-04-22T08:43:49.126Z,100633.03
2023-04-22T08:46:53.266Z,100639.25
2023-04-22T08:49:56.223Z,100632.59
2023-04-22T08:52:58.776Z,100637.97
2023-04-22T08:56:01.330Z,100628.81
2023-04-22T08:59:04.231Z,100621.06
2023-04-22T09:02:08.693Z,100609.38
2023-04-22T09:05:11.519Z,100605.50
2023-04-22T09:08:14.038Z,100595.19
2023-04-22T09:11:16.581Z,100599.22
2023-04-22T09:14:19.817Z,100583.28
2023-04-22T09:17:32.105Z,100578.44
2023-04-22T09:20:34.707Z,100568.41
2023-04-22T09:23:46.477Z,100587.97
2023-04-22T09:26:49.262Z,100583.16
2023-04-22T09:29:52.338Z,100579.19
2023-04-22T09:32:57.040Z,100577.69
2023-04-22T09:35:59.668Z,100596.91
2023-04-22T09:39:04.974Z,100600.56
2023-04-22T09:42:07.483Z,100600.28
2023-04-22T09:45:10.601Z,100602.75
2023-04-22T09:48:15.142Z,100618.75
2023-04-22T09:51:17.778Z,100634.00
2023-04-22T09:54:20.428Z,100642.84
2023-04-22T09:57:23.089Z,100646.19
2023-04-22T10:00:27.036Z,100658.34
2023-04-22T10:03:30.930Z,100651.31
2023-04-22T10:06:33.534Z,100647.41
2023-04-22T10:09:36.261Z,100644.31
2023-04-22T10:12:38.872Z,100649.25
2023-04-22T10:15:42.347Z,100651.72
2023-04-22T10:18:46.224Z,100643.00
2023-04-22T10:21:51.474Z,100641.47
2023-04-22T10:24:55.995Z,100633.47
2023-04-22T10:28:03.199Z,100643.44
2023-04-22T10:31:07.460Z,100638.56
2023-04-22T10:34:13.042Z,100638.53
2023-04-22T10:37:15.767Z,100644.47
2023-04-22T10:40:18.845Z,100647.53
2023-04-22T10:43:21.364Z,100652.28
2023-04-22T10:47:00.958Z,100653.88
2023-04-22T10:50:18.562Z,100645.06
2023-04-22T10:53:36.134Z,100635.06
2023-04-22T10:57:01.791Z,100623.84
2023-04-22T11:03:37.716Z,100635.00
2023-04-22T11:06:41.722Z,100643.34
2023-04-22T11:09:45.417Z,100647.66
2023-04-22T11:12:47.994Z,100632.81
2023-04-22T11:15:51.116Z,100635.97
2023-04-22T11:18:53.806Z,100637.47
2023-04-22T11:21:58.581Z,100641.00
2023-04-22T11:25:01.578Z,100672.53
2023-04-22T11:28:04.486Z,100683.59
2023-04-22T11:31:07.778Z,100679.50
2023-04-22T11:34:10.470Z,100696.16
2023-04-22T11:37:14.358Z,100681.69
2023-04-22T11:40:30.002Z,100668.91
2023-04-22T11:43:34.278Z,100658.53
2023-04-22T11:46:39.373Z,100659.69
2023-04-22T11:49:41.960Z,100641.75
2023-04-22T11:52:50.184Z,100645.72
2023-04-22T11:55:52.925Z,100673.19
2023-04-22T11:58:55.447Z,100667.09
2023-04-22T12:01:57.994Z,100643.13
2023-04-22T12:05:00.653Z,100668.66
2023-04-22T12:08:05.496Z,100660.63
2023-04-22T12:11:09.327Z,100622.72
2023-04-22T12:14:11.884Z,100647.88
2023-04-22T12:17:15.527Z,100666.19
2023-04-22T12:20:18.149Z,100648.59
2023-04-22T12:23:22.077Z,100644.59
2023-04-22T12:26:26.881Z,100636.56
2023-04-22T12:29:31.722Z,100629.38
2023-04-22T12:32:34.343Z,100638.91
2023-04-22T12:35:36.876Z,100640.53
2023-04-22T12:38:41.306Z,100646.13
2023-04-22T12:41:43.905Z,100631.34
2023-04-22T12:44:46.830Z,100622.16
2023-04-22T12:47:49.648Z,100617.44
2023-04-22T12:50:52.267Z,100628.69
2023-04-22T12:53:56.121Z,100628.31
2023-04-22T12:56:58.827Z,100637.44
2023-04-22T13:00:01.450Z,100641.41
2023-04-22T13:03:04.190Z,100636.63
2023-04-22T13:06:07.048Z,100641.41
2023-04-22T13:09:10.981Z,100660.59
2023-04-22T13:12:13.549Z,100657.34
2023-04-22T13:15:16.843Z,100671.31
2023-04-22T13:18:19.537Z,100668.16
2023-04-22T13:21:22.178Z,100666.97
2023-04-22T13:24:26.396Z,100661.03
2023-04-22T13:27:29.691Z,100653.47
2023-04-22T13:30:32.305Z,100654.63
2023-04-22T13:33:34.803Z,100660.53
2023-04-22T13:36:37.346Z,100658.91
2023-04-22T13:39:41.404Z,100657.31
2023-04-22T13:42:44.412Z,100663.69
2023-04-22T13:45:48.251Z,100670.81
2023-04-22T13:48:50.923Z,100655.25
2023-04-22T13:51:53.496Z,100668.03
2023-04-22T13:54:57.366Z,100658.03
2023-04-22T13:58:01.106Z,100652.44
2023-04-22T14:01:04.158Z,100664.81
2023-04-22T14:04:06.912Z,100667.63
2023-04-22T14:07:09.493Z,100669.16
2023-04-22T14:10:13.724Z,100669.88
2023-04-22T14:13:16.275Z,100671.47
2023-04-22T14:16:19.737Z,100681.00
2023-04-22T14:19:24.188Z,100677.78
2023-04-22T14:22:26.833Z,100685.34
2023-04-22T14:25:30.731Z,100694.47
2023-04-22T14:28:33.273Z,100690.44
2023-04-22T14:31:35.873Z,100686.81
2023-04-22T14:34:39.083Z,100696.78
2023-04-22T14:37:43.422Z,100696.78
2023-04-22T14:40:47.321Z,100695.97
2023-04-22T14:43:49.891Z,100703.91
2023-04-22T14:46:52.477Z,100715.88
2023-04-22T14:49:55.076Z,100712.59
2023-04-22T14:52:57.715Z,100717.41
2023-04-22T14:56:01.571Z,100718.94
2023-04-22T14:59:04.161Z,100719.66
2023-04-22T15:02:07.182Z,100720.88
2023-04-22T15:05:10.065Z,100722.03
2023-04-22T15:08:12.637Z,100722.03
2023-04-22T15:11:16.574Z,100717.19
2023-04-22T15:14:19.156Z,100725.13
2023-04-22T15:17:21.817Z,100711.09
2023-04-22T15:20:24.494Z,100710.63
2023-04-22T15:23:27.035Z,100705.88
2023-04-22T15:26:30.949Z,100701.53
2023-04-22T15:29:33.491Z,100687.53
2023-04-22T15:32:37.045Z,100689.88
2023-04-22T15:35:41.256Z,100701.75
2023-04-22T15:38:43.770Z,100695.44
2023-04-22T15:41:47.718Z,100696.31
2023-04-22T15:44:50.442Z,100692.81
2023-04-22T15:47:53.880Z,100697.28
2023-04-22T15:50:56.398Z,100695.78
2023-04-22T15:53:59.191Z,100704.69
2023-04-22T15:57:03.525Z,100702.88
2023-04-22T16:00:11.863Z,100698.22
2023-04-22T16:03:16.258Z,100699.44
2023-04-22T16:06:18.922Z,100709.09
2023-04-22T16:09:21.494Z,100702.00
2023-04-22T16:12:25.412Z,100705.66
2023-04-22T16:15:27.991Z,100705.34
2023-04-22T16:18:30.578Z,100712.69
2023-04-22T16:21:33.866Z,100717.66
2023-04-22T16:24:36.588Z,100720.19
2023-04-22T16:27:40.620Z,100726.59
2023-04-22T16:30:43.228Z,100729.72
2023-04-22T16:33:46.213Z,100725.28
2023-04-22T16:36:48.792Z,100730.44
2023-04-22T16:39:51.492Z,100722.81
2023-04-22T16:42:57.158Z,100723.53
2023-04-22T16:45:59.934Z,100724.75
2023-04-22T16:49:02.485Z,100726.34
2023-04-22T16:52:05.030Z,100717.53
2023-04-22T16:55:08.613Z,100714.44
2023-04-22T16:58:12.588Z,100712.13
2023-04-22T17:01:15.158Z,100714.97
2023-04-22T17:04:18.207Z,100709.91
2023-04-22T17:07:21.079Z,100722.75
2023-04-22T17:10:24.649Z,100723.91
2023-04-22T17:13:28.556Z,100720.56
2023-04-22T17:16:31.094Z,100722.00
2023-04-22T17:19:33.686Z,100719.75
2023-04-22T17:22:36.257Z,100713.38
2023-04-22T17:25:38.794Z,100709.34
2023-04-22T17:28:42.693Z,100709.34
2023-04-22T17:31:46.010Z,100706.97
2023-04-22T17:34:48.733Z,100714.19
2023-04-22T17:37:53.457Z,100707.41
2023-04-22T17:40:56.079Z,100706.25
2023-04-22T17:43:59.971Z,100710.19
2023-04-22T17:47:03.972Z,100710.94
2023-04-22T17:50:09.141Z,100715.63
2023-04-22T17:53:11.750Z,100709.91
2023-04-22T17:56:14.263Z,100709.75
2023-04-22T17:59:18.750Z,100713.66
2023-04-22T18:02:22.077Z,100721.53
2023-04-22T18:05:24.826Z,100722.47
2023-04-22T18:08:27.477Z,100725.13
2023-04-22T18:11:30.033Z,100728.28
2023-04-22T18:14:33.919Z,100726.66
2023-04-22T18:17:36.470Z,100725.88
2023-04-22T18:20:39.049Z,100723.53
2023-04-22T18:23:42.324Z,100726.66
2023-04-22T18:26:47.027Z,100726.63
2023-04-22T18:29:51.320Z,100725.34
2023-04-22T18:32:53.954Z,100721.69
2023-04-22T18:35:56.576Z,100726.00
2023-04-22T18:38:59.092Z,100736.72
2023-04-22T18:42:02.241Z,100746.31
2023-04-22T18:45:07.520Z,100741.81
2023-04-22T18:48:10.104Z,100753.31
2023-04-22T18:51:13.448Z,100752.44
2023-04-22T18:54:16.030Z,100762.72
2023-04-22T18:57:18.628Z,100770.66
2023-04-22T19:00:22.587Z,100768.16
2023-04-22T19:03:25.398Z,100777.97
2023-04-22T19:06:28.920Z,100776.66
2023-04-22T19:09:32.261Z,100790.88
2023-04-22T19:12:34.851Z,100782.00
2023-04-22T19:15:38.765Z,100789.81
2023-04-22T19:18:41.454Z,100798.44
2023-04-22T19:21:44.073Z,100793.91
2023-04-22T19:24:46.841Z,100789.75
2023-04-22T19:27:49.437Z,100798.38
2023-04-22T19:30:53.555Z,100793.81
2023-04-22T19:33:56.170Z,100792.72
2023-04-22T19:36:58.730Z,100791.28
2023-04-22T19:40:01.321Z,100794.66
2023-04-22T19:43:04.189Z,100792.16
2023-04-22T19:46:08.174Z,100793.31
2023-04-22T19:49:11.309Z,100790.53
2023-04-22T19:52:15.486Z,100791.22
2023-04-22T19:55:18.378Z,100791.06
2023-04-22T19:58:20.983Z,100798.06
2023-04-22T20:01:25.506Z,100789.03
2023-04-22T20:04:29.789Z,100787.13
2023-04-22T20:07:33.188Z,100790.78
2023-04-22T20:10:35.875Z,100781.75
2023-04-22T20:13:38.879Z,100782.94
2023-04-22T20:16:43.434Z,100776.19
2023-04-22T20:19:46.255Z,100776.66
2023-04-22T20:22:48.780Z,100775.50
2023-04-22T20:25:51.630Z,100773.88
2023-04-22T20:28:54.624Z,100759.84
2023-04-22T20:31:59.071Z,100761.44
2023-04-22T20:35:02.159Z,100759.84
2023-04-22T20:38:04.805Z,100753.16
2023-04-22T20:41:08.399Z,100743.44
2023-04-22T20:44:10.956Z,100747.72
2023-04-22T20:47:16.341Z,100753.28
2023-04-22T20:50:19.001Z,100743.88
2023-04-22T20:53:21.597Z,100751.06
2023-04-22T20:56:24.832Z,100757.69
2023-04-22T20:59:27.607Z,100769.16
2023-04-22T21:02:31.589Z,100768.00
2023-04-22T21:05:40.613Z,100773.91
2023-04-22T21:08:43.141Z,100766.63
2023-04-22T21:11:46.116Z,100764.34
2023-04-22T21:14:49.265Z,100769.22
2023-04-22T21:17:56.394Z,100757.88
2023-04-22T21:20:59.759Z,100753.03
2023-04-22T21:24:02.719Z,100749.78
2023-04-22T21:27:05.795Z,100748.88
2023-04-22T21:30:09.875Z,100751.81
2023-04-22T21:33:13.737Z,100739.78
2023-04-22T21:36:16.269Z,100741.75
2023-04-22T21:39:19.132Z,100746.50
2023-04-22T21:42:21.631Z,100739.56
2023-04-22T21:45:24.169Z,100742.56
2023-04-22T21:48:28.133Z,100748.84
2023-04-22T21:51:30.799Z,100756.72
2023-04-22T21:54:33.390Z,100751.81
2023-04-22T21:57:35.929Z,100743.50
2023-04-22T22:00:38.683Z,100746.28
2023-04-22T22:03:42.654Z,100750.34
2023-04-22T22:06:45.631Z,100746.97
2023-04-22T22:09:48.149Z,100750.69
2023-04-22T22:12:50.740Z,100761.22
2023-04-22T22:15:55.405Z,100763.50
2023-04-22T22:19:02.331Z,100763.41
2023-04-22T22:22:04.905Z,100766.53
2023-04-22T22:25:08.788Z,100764.91
2023-04-22T22:28:11.386Z,100759.34
2023-04-22T22:31:14.603Z,100759.34
2023-04-22T22:34:18.445Z,100752.97
2023-04-22T22:37:20.975Z,100757.38
2023-04-22T22:40:23.557Z,100753.44
2023-04-22T22:43:26.677Z,100759.47
2023-04-22T22:46:29.315Z,100755.56
2023-04-22T22:49:33.527Z,100756.69
2023-04-22T22:52:36.253Z,100753.69
2023-04-22T22:55:38.817Z,100751.59
2023-04-22T22:58:41.329Z,100748.03
2023-04-22T23:01:44.059Z,100745.59
2023-04-22T23:04:48.079Z,100736.78
2023-04-22T23:07:50.639Z,100738.41
2023-04-22T23:10:53.178Z,100742.34
2023-04-22T23:13:56.231Z,100730.31
2023-04-22T23:16:58.828Z,100741.75
2023-04-22T23:20:02.804Z,100742.91
2023-04-22T23:23:05.359Z,100731.69
2023-04-22T23:26:08.729Z,100739.53
2023-04-22T23:29:11.720Z,100724.38
2023-04-22T23:32:16.337Z,100726.69
2023-04-22T23:35:20.332Z,100720.34
2023-04-22T23:38:22.922Z,100709.22
2023-04-22T23:41:25.555Z,100709.09
2023-04-22T23:44:28.092Z,100702.28
2023-04-22T23:47:31.252Z,100695.44
2023-04-22T23:50:35.545Z,100704.09
2023-04-22T23:53:38.403Z,100704.09
2023-04-22T23:56:41.769Z,100692.22
2023-04-22T23:59:44.939Z,100696.16
